Time;durP1;ratioP1;P1;durP2;ratioP2;P2;SDS_P1;SDS_P2;PMS_P1;PMS_P2;Temp;Humidity;BMP_temperature;BMP_pressure;BME280_temperature;BME280_humidity;BME280_pressure;Samples;Min_cycle;Max_cycle;Signal;HPM_P1;HPM_P2
2022/12/07 00:01:09;;;;;;;15.65;10.57;;;6.50;99.90;;;;;;5036083;28;20089;-76
2022/12/07 00:03:38;;;;;;;15.63;10.60;;;6.50;99.90;;;;;;5036386;28;20398;-77
2022/12/07 00:06:08;;;;;;;17.95;11.80;;;6.50;99.90;;;;;;5039138;28;20025;-75
2022/12/07 00:08:35;;;;;;;15.70;10.88;;;6.50;99.90;;;;;;5040299;28;20454;-71
2022/12/07 00:11:06;;;;;;;17.60;11.75;;;6.40;99.90;;;;;;5039713;28;20021;-75
2022/12/07 00:13:33;;;;;;;24.20;11.70;;;6.40;99.90;;;;;;5032690;28;20362;-74
2022/12/07 00:16:08;;;;;;;18.42;11.00;;;6.40;99.90;;;;;;5034797;28;20034;-75
2022/12/07 00:18:34;;;;;;;15.23;10.95;;;6.40;99.90;;;;;;5036095;28;20404;-74
2022/12/07 00:21:03;;;;;;;20.05;11.90;;;6.40;99.90;;;;;;5030044;28;20026;-75
2022/12/07 00:23:29;;;;;;;18.70;11.82;;;6.40;99.90;;;;;;5037172;28;20032;-75
2022/12/07 00:25:54;;;;;;;17.98;12.27;;;6.50;99.90;;;;;;5035744;28;20034;-74
2022/12/07 00:28:20;;;;;;;18.50;12.20;;;6.40;99.90;;;;;;5036570;28;20395;-74
2022/12/07 00:30:48;;;;;;;18.20;10.98;;;6.40;99.90;;;;;;5036129;28;20438;-75
2022/12/07 00:33:13;;;;;;;20.80;12.45;;;6.40;99.90;;;;;;5036947;28;20637;-73
2022/12/07 00:35:39;;;;;;;22.15;12.95;;;6.40;99.90;;;;;;5037952;28;20061;-73
2022/12/07 00:38:05;;;;;;;23.95;12.43;;;6.40;99.90;;;;;;5039523;28;20109;-73
2022/12/07 00:40:32;;;;;;;21.50;12.82;;;6.30;99.90;;;;;;5032536;28;20086;-73
2022/12/07 00:43:00;;;;;;;21.88;12.43;;;6.30;99.90;;;;;;5033359;28;20021;-74
2022/12/07 00:45:26;;;;;;;18.65;12.68;;;6.30;99.90;;;;;;5033937;28;20088;-74
2022/12/07 00:47:51;;;;;;;17.33;11.63;;;6.30;99.90;;;;;;5026913;28;20115;-75
2022/12/07 00:50:17;;;;;;;19.27;11.70;;;6.30;99.90;;;;;;5026055;28;20041;-75
2022/12/07 00:52:43;;;;;;;17.45;11.32;;;6.30;99.90;;;;;;5039980;28;20538;-74
2022/12/07 00:55:08;;;;;;;18.50;12.05;;;6.40;99.90;;;;;;5032253;28;20029;-75
2022/12/07 00:57:34;;;;;;;18.58;12.20;;;6.30;99.90;;;;;;5033308;28;20469;-75
2022/12/07 01:00:00;;;;;;;22.38;12.68;;;6.30;99.90;;;;;;5039437;28;20040;-75
2022/12/07 01:02:28;;;;;;;22.08;12.15;;;6.30;99.90;;;;;;5033679;28;20041;-75
2022/12/07 01:04:53;;;;;;;18.00;11.57;;;6.40;99.90;;;;;;5026973;28;20033;-76
2022/12/07 01:07:19;;;;;;;19.63;12.05;;;6.30;99.90;;;;;;5035153;28;20017;-72
2022/12/07 01:09:45;;;;;;;23.05;12.35;;;6.30;99.90;;;;;;5034011;28;20053;-74
2022/12/07 01:12:10;;;;;;;21.83;12.40;;;6.30;99.90;;;;;;5029973;28;20038;-74
2022/12/07 01:14:36;;;;;;;20.70;12.00;;;6.20;99.90;;;;;;5032091;28;20438;-72
2022/12/07 01:17:04;;;;;;;19.60;12.02;;;6.20;99.90;;;;;;5032478;28;20099;-74
2022/12/07 01:19:29;;;;;;;20.25;12.48;;;6.20;99.90;;;;;;5033020;28;20064;-74
2022/12/07 01:21:57;;;;;;;15.95;11.25;;;6.20;99.90;;;;;;5033368;28;20486;-74
2022/12/07 01:24:23;;;;;;;18.83;12.07;;;6.20;99.90;;;;;;5038243;28;20053;-76
2022/12/07 01:26:49;;;;;;;23.73;11.60;;;6.20;99.90;;;;;;5032589;28;20115;-75
2022/12/07 01:29:17;;;;;;;20.17;11.98;;;6.20;99.90;;;;;;5033365;28;20068;-75
2022/12/07 01:31:43;;;;;;;18.40;11.93;;;6.20;99.90;;;;;;5034806;28;20052;-73
2022/12/07 01:34:09;;;;;;;21.08;12.57;;;6.20;99.90;;;;;;5031373;28;20192;-75
2022/12/07 01:36:37;;;;;;;21.40;11.35;;;6.10;99.90;;;;;;5032981;28;20120;-76
2022/12/07 01:39:07;;;;;;;20.60;11.07;;;6.10;99.90;;;;;;5014217;28;20035;-73
2022/12/07 01:41:43;;;;;;;17.13;11.82;;;6.10;99.90;;;;;;5032606;28;20029;-73
2022/12/07 01:44:17;;;;;;;23.67;11.75;;;6.10;99.90;;;;;;5034941;28;20059;-74
2022/12/07 01:46:58;;;;;;;13.88;10.15;;;6.00;99.90;;;;;;5030538;28;20072;-74
2022/12/07 01:49:38;;;;;;;17.05;10.52;;;5.90;99.90;;;;;;5031083;28;20227;-74
2022/12/07 01:52:06;;;;;;;20.15;10.73;;;5.90;99.90;;;;;;5031593;28;20041;-74
2022/12/07 01:54:34;;;;;;;17.98;10.23;;;5.80;99.90;;;;;;5031919;28;20021;-74
2022/12/07 01:57:01;;;;;;;21.92;10.95;;;5.80;99.90;;;;;;5031903;28;20026;-73
2022/12/07 01:59:29;;;;;;;14.43;9.80;;;5.80;99.90;;;;;;5030355;28;20025;-74
2022/12/07 02:01:58;;;;;;;16.70;9.95;;;5.80;99.90;;;;;;5028502;28;20030;-73
2022/12/07 02:04:26;;;;;;;15.13;9.73;;;5.80;99.90;;;;;;5037395;28;20056;-74
2022/12/07 02:06:57;;;;;;;16.45;9.63;;;5.70;99.90;;;;;;5033139;28;20025;-75
2022/12/07 02:09:23;;;;;;;16.45;10.15;;;5.70;99.90;;;;;;5030605;28;20032;-75
2022/12/07 02:11:49;;;;;;;20.95;9.80;;;5.60;99.90;;;;;;5031764;28;20118;-75
2022/12/07 02:14:15;;;;;;;19.02;9.75;;;5.60;99.90;;;;;;5032714;28;20041;-75
2022/12/07 02:16:52;;;;;;;15.43;9.65;;;5.60;99.90;;;;;;5034082;28;20452;-74
2022/12/07 02:19:41;;;;;;;14.15;9.27;;;5.60;99.90;;;;;;5033951;28;20017;-75
2022/12/07 02:22:31;;;;;;;19.83;9.95;;;5.60;99.90;;;;;;5031714;28;20037;-74
2022/12/07 02:25:58;;;;;;;18.48;10.15;;;5.60;99.90;;;;;;5032068;28;20017;-75
2022/12/07 02:28:34;;;;;;;16.65;10.15;;;5.40;99.90;;;;;;5011611;28;20049;-77
2022/12/07 02:31:08;;;;;;;14.82;9.85;;;5.40;99.90;;;;;;5037643;28;20045;-75
2022/12/07 02:34:00;;;;;;;15.60;9.55;;;5.40;99.90;;;;;;5030810;28;20816;-74
2022/12/07 02:36:31;;;;;;;14.95;9.07;;;5.30;99.90;;;;;;5035039;28;20052;-75
2022/12/07 02:39:04;;;;;;;20.40;10.13;;;5.30;99.90;;;;;;5032148;28;20037;-74
2022/12/07 02:41:34;;;;;;;16.67;10.13;;;5.30;99.90;;;;;;5036048;28;20044;-74
2022/12/07 02:44:20;;;;;;;15.18;9.82;;;5.30;99.90;;;;;;5051846;28;20048;-74
2022/12/07 02:47:01;;;;;;;13.68;8.52;;;5.30;99.90;;;;;;5035492;28;20155;-74
2022/12/07 02:49:28;;;;;;;19.98;10.32;;;5.20;99.90;;;;;;5030582;28;20044;-75
2022/12/07 02:51:54;;;;;;;15.15;9.52;;;5.20;99.90;;;;;;5020049;28;20061;-75
2022/12/07 02:54:20;;;;;;;20.80;9.32;;;5.10;99.90;;;;;;5034651;28;20049;-75
2022/12/07 02:57:01;;;;;;;16.58;9.98;;;5.10;99.90;;;;;;5036522;28;20079;-74
2022/12/07 02:59:45;;;;;;;17.42;9.88;;;5.10;99.90;;;;;;5036509;28;20024;-75
2022/12/07 03:02:16;;;;;;;16.65;8.75;;;5.10;99.90;;;;;;5036643;28;20470;-74
2022/12/07 03:05:06;;;;;;;20.73;9.05;;;5.10;99.90;;;;;;5037867;28;20064;-76
2022/12/07 03:07:56;;;;;;;20.17;9.40;;;5.10;99.90;;;;;;5034767;28;20580;-75
2022/12/07 03:10:28;;;;;;;15.55;9.15;;;5.10;99.90;;;;;;5036521;28;20025;-74
2022/12/07 03:13:09;;;;;;;11.27;8.70;;;5.20;99.90;;;;;;5026364;28;20022;-76
2022/12/07 03:16:03;;;;;;;18.88;9.77;;;5.20;99.90;;;;;;5037462;28;20030;-75
2022/12/07 03:18:34;;;;;;;14.30;9.73;;;5.20;99.90;;;;;;5036809;28;20026;-75
2022/12/07 03:21:08;;;;;;;19.33;9.98;;;5.30;99.90;;;;;;5034692;28;20040;-75
2022/12/07 03:23:37;;;;;;;14.90;9.05;;;5.30;99.90;;;;;;5021200;28;20047;-75
2022/12/07 03:26:06;;;;;;;19.20;10.23;;;5.30;99.90;;;;;;5041107;28;20045;-75
2022/12/07 03:28:38;;;;;;;16.17;9.23;;;5.30;99.90;;;;;;5038691;28;20056;-73
2022/12/07 03:31:23;;;;;;;15.07;9.20;;;5.30;99.90;;;;;;5033832;28;20108;-74
2022/12/07 03:34:13;;;;;;;13.85;8.68;;;5.20;99.90;;;;;;5033977;28;20264;-75
2022/12/07 03:36:47;;;;;;;14.65;7.75;;;5.20;99.90;;;;;;5034679;28;20025;-75
2022/12/07 03:39:19;;;;;;;16.67;9.32;;;5.30;99.90;;;;;;5032888;28;20324;-75
2022/12/07 03:41:45;;;;;;;15.23;8.57;;;5.30;99.90;;;;;;5034219;28;20084;-75
2022/12/07 03:44:13;;;;;;;13.00;8.52;;;5.20;99.90;;;;;;5037101;28;20021;-74
2022/12/07 03:47:12;;;;;;;16.98;8.95;;;5.20;99.90;;;;;;5034536;28;20072;-74
2022/12/07 03:49:53;;;;;;;12.30;8.68;;;5.20;99.90;;;;;;5037203;28;20033;-75
2022/12/07 03:52:28;;;;;;;13.68;8.82;;;5.20;99.90;;;;;;5034218;28;20329;-75
2022/12/07 03:54:58;;;;;;;12.75;8.95;;;5.20;99.90;;;;;;5032854;28;20040;-73
2022/12/07 03:57:26;;;;;;;18.38;9.02;;;5.20;99.90;;;;;;5020573;28;20120;-75
2022/12/07 03:59:55;;;;;;;12.30;8.27;;;5.20;99.90;;;;;;5033842;28;20036;-74
2022/12/07 04:02:23;;;;;;;14.82;9.02;;;5.20;99.90;;;;;;5032847;28;20057;-74
2022/12/07 04:04:49;;;;;;;18.30;8.98;;;5.30;99.90;;;;;;5034285;28;20191;-75
2022/12/07 04:07:14;;;;;;;16.83;9.13;;;5.20;99.90;;;;;;5036425;28;20549;-77
2022/12/07 04:09:40;;;;;;;14.95;8.55;;;5.30;99.90;;;;;;5029154;28;20148;-74
2022/12/07 04:12:08;;;;;;;16.73;7.97;;;5.30;99.90;;;;;;5038870;28;20025;-75
2022/12/07 04:14:38;;;;;;;17.80;8.82;;;5.30;99.90;;;;;;5032110;28;20037;-74
2022/12/07 04:17:07;;;;;;;17.55;8.20;;;5.30;99.90;;;;;;5034548;28;20032;-74
2022/12/07 04:19:33;;;;;;;17.70;9.50;;;5.30;99.90;;;;;;5039945;28;20033;-75
2022/12/07 04:22:01;;;;;;;17.92;7.93;;;5.30;99.90;;;;;;5029856;28;20573;-74
2022/12/07 04:24:30;;;;;;;14.48;8.25;;;5.30;99.90;;;;;;5036054;28;20029;-75
2022/12/07 04:26:55;;;;;;;19.15;8.48;;;5.30;99.90;;;;;;5034178;28;20021;-74
2022/12/07 04:29:22;;;;;;;24.73;7.93;;;5.30;99.90;;;;;;5039064;28;20036;-74
2022/12/07 04:31:50;;;;;;;11.23;7.43;;;5.40;99.90;;;;;;5038021;28;20021;-74
2022/12/07 04:34:16;;;;;;;13.80;7.55;;;5.40;99.90;;;;;;5035905;28;20355;-75
2022/12/07 04:36:43;;;;;;;10.57;7.55;;;5.50;99.90;;;;;;5032298;28;20125;-74
2022/12/07 04:39:21;;;;;;;12.77;7.57;;;5.50;99.90;;;;;;5031961;28;20026;-73
2022/12/07 04:41:47;;;;;;;14.80;8.07;;;5.50;99.90;;;;;;5034566;28;20447;-73
2022/12/07 04:44:14;;;;;;;16.58;8.07;;;5.50;99.90;;;;;;5036665;28;20112;-75
2022/12/07 04:46:43;;;;;;;20.58;8.60;;;5.50;99.90;;;;;;5034639;28;20021;-73
2022/12/07 04:49:11;;;;;;;15.13;7.13;;;5.50;99.90;;;;;;5032871;28;20520;-72
2022/12/07 04:51:37;;;;;;;14.30;7.28;;;5.50;99.90;;;;;;5035673;28;20025;-75
2022/12/07 04:54:03;;;;;;;15.68;7.72;;;5.40;99.90;;;;;;5035586;28;20025;-75
2022/12/07 04:56:28;;;;;;;12.70;7.22;;;5.40;99.90;;;;;;5035834;28;20167;-74
2022/12/07 04:58:57;;;;;;;22.65;7.75;;;5.40;99.90;;;;;;5032037;28;20184;-74
2022/12/07 05:01:23;;;;;;;18.38;6.80;;;5.40;99.90;;;;;;5031597;28;20037;-74
2022/12/07 05:03:49;;;;;;;17.42;6.55;;;5.50;99.90;;;;;;5028093;28;20026;-74
2022/12/07 05:06:15;;;;;;;13.20;6.20;;;5.50;99.90;;;;;;5031595;28;20108;-74
2022/12/07 05:08:43;;;;;;;14.73;6.82;;;5.50;99.90;;;;;;5033806;28;20373;-74
2022/12/07 05:11:37;;;;;;;10.88;6.28;;;5.50;99.90;;;;;;5030440;28;20036;-74
2022/12/07 05:14:05;;;;;;;14.80;6.28;;;5.60;99.90;;;;;;5032915;28;20030;-74
2022/12/07 05:16:30;;;;;;;19.83;7.38;;;5.50;99.90;;;;;;5041744;28;20040;-77
2022/12/07 05:18:56;;;;;;;11.18;5.70;;;5.50;99.90;;;;;;5036207;28;20058;-74
2022/12/07 05:21:22;;;;;;;20.02;7.03;;;5.40;99.90;;;;;;5034974;28;20060;-74
2022/12/07 05:23:47;;;;;;;13.73;6.90;;;5.40;99.90;;;;;;5035215;28;20063;-76
2022/12/07 05:26:13;;;;;;;14.40;7.00;;;5.40;99.90;;;;;;5036625;28;20029;-73
2022/12/07 05:28:38;;;;;;;14.32;7.22;;;5.40;99.90;;;;;;5041153;28;20032;-73
2022/12/07 05:31:04;;;;;;;18.63;6.95;;;5.30;99.90;;;;;;5032643;28;20040;-72
2022/12/07 05:33:30;;;;;;;14.88;7.32;;;5.30;99.90;;;;;;5035700;28;20018;-74
2022/12/07 05:35:56;;;;;;;14.35;7.57;;;5.30;99.90;;;;;;5034058;28;20349;-74
2022/12/07 05:38:21;;;;;;;13.68;7.20;;;5.30;99.90;;;;;;5032341;28;20025;-74
2022/12/07 05:40:47;;;;;;;11.18;7.15;;;5.30;99.90;;;;;;5031942;28;20029;-74
2022/12/07 05:43:12;;;;;;;10.07;6.53;;;5.30;99.90;;;;;;5037839;28;20033;-74
2022/12/07 05:45:38;;;;;;;13.52;7.88;;;5.30;99.90;;;;;;5037628;28;20030;-74
2022/12/07 05:48:04;;;;;;;16.58;7.82;;;5.30;99.90;;;;;;5032396;28;20053;-73
2022/12/07 05:50:32;;;;;;;15.73;7.03;;;5.20;99.90;;;;;;5033496;28;20105;-72
2022/12/07 05:52:57;;;;;;;17.63;7.85;;;5.20;99.90;;;;;;5030923;28;20103;-72
2022/12/07 05:55:24;;;;;;;12.55;7.18;;;5.30;99.90;;;;;;5030509;28;20083;-73
2022/12/07 06:00:36;;;;;;;21.85;6.90;;;5.30;99.90;;;;;;5030764;28;20076;-73
2022/12/07 06:03:02;;;;;;;10.82;6.85;;;5.20;99.90;;;;;;5034092;28;20094;-74
2022/12/07 06:05:27;;;;;;;11.73;6.57;;;5.20;99.90;;;;;;5037962;28;20411;-74
2022/12/07 06:07:53;;;;;;;10.60;7.03;;;5.20;99.90;;;;;;5036158;28;20054;-73
2022/12/07 06:10:19;;;;;;;17.50;7.20;;;5.20;99.90;;;;;;5034179;28;20021;-73
2022/12/07 06:12:49;;;;;;;13.05;7.03;;;5.20;99.90;;;;;;5035517;28;20422;-72
2022/12/07 06:15:15;;;;;;;11.80;6.65;;;5.20;99.90;;;;;;5033276;28;20143;-73
2022/12/07 06:17:41;;;;;;;13.23;7.40;;;5.10;99.90;;;;;;5033863;28;20399;-73
2022/12/07 06:20:07;;;;;;;22.60;7.82;;;5.10;99.90;;;;;;5032772;28;20404;-73
2022/12/07 06:22:35;;;;;;;18.58;7.40;;;5.00;99.90;;;;;;5032638;28;20167;-73
2022/12/07 06:25:01;;;;;;;11.48;7.22;;;4.90;99.90;;;;;;5035338;28;20509;-73
2022/12/07 06:27:27;;;;;;;11.20;7.25;;;4.90;99.90;;;;;;5037208;28;20171;-74
2022/12/07 06:29:52;;;;;;;17.92;7.55;;;4.90;99.90;;;;;;5037081;28;20030;-73
2022/12/07 06:32:18;;;;;;;17.92;7.40;;;4.80;99.90;;;;;;5035613;28;20056;-73
2022/12/07 06:34:44;;;;;;;11.57;7.90;;;4.80;99.90;;;;;;5035417;28;20029;-74
2022/12/07 06:37:11;;;;;;;16.88;7.38;;;4.70;99.90;;;;;;5035558;28;20491;-73
2022/12/07 06:39:38;;;;;;;10.98;7.38;;;4.70;99.90;;;;;;5034034;28;20079;-73
2022/12/07 06:42:04;;;;;;;12.48;7.50;;;4.70;99.90;;;;;;5028973;28;20455;-73
2022/12/07 06:44:30;;;;;;;18.13;8.38;;;4.70;99.90;;;;;;5033002;28;20029;-73
2022/12/07 06:46:56;;;;;;;15.05;8.23;;;4.70;99.90;;;;;;5039178;28;20087;-73
2022/12/07 06:49:21;;;;;;;14.85;8.77;;;4.80;99.90;;;;;;5041633;28;20033;-73
2022/12/07 06:51:47;;;;;;;17.00;8.27;;;4.80;99.90;;;;;;5037350;28;20649;-74
2022/12/07 06:54:14;;;;;;;20.60;7.95;;;4.90;99.90;;;;;;5036825;28;20030;-73
2022/12/07 06:56:41;;;;;;;19.55;8.65;;;4.90;99.90;;;;;;5037957;28;20474;-74
2022/12/07 06:59:07;;;;;;;14.75;8.32;;;4.90;99.90;;;;;;5034735;28;20033;-74
2022/12/07 07:01:37;;;;;;;10.25;7.00;;;4.90;99.90;;;;;;5033104;28;20373;-74
2022/12/07 07:04:03;;;;;;;12.07;7.03;;;4.90;99.90;;;;;;5029977;28;20522;-73
2022/12/07 07:06:32;;;;;;;18.70;8.10;;;4.90;99.90;;;;;;5032953;28;20128;-74
2022/12/07 07:09:00;;;;;;;16.25;7.22;;;5.00;99.90;;;;;;5035351;28;20017;-72
2022/12/07 07:11:26;;;;;;;20.42;7.65;;;5.00;99.90;;;;;;5035301;28;20345;-75
2022/12/07 07:13:56;;;;;;;15.43;7.20;;;5.00;99.90;;;;;;5034639;28;20109;-74
2022/12/07 07:16:26;;;;;;;17.90;7.80;;;5.00;99.90;;;;;;5037488;28;20451;-74
2022/12/07 07:18:52;;;;;;;24.02;7.55;;;5.00;99.90;;;;;;5026379;28;20026;-75
2022/12/07 07:21:18;;;;;;;16.85;8.68;;;5.00;99.90;;;;;;5036252;28;20465;-75
2022/12/07 07:23:43;;;;;;;19.17;8.07;;;5.00;99.90;;;;;;5033437;28;20189;-74
2022/12/07 07:26:09;;;;;;;14.25;7.10;;;4.90;99.90;;;;;;5039694;28;20033;-74
2022/12/07 07:28:37;;;;;;;23.30;10.15;;;4.90;99.90;;;;;;5039808;28;20058;-74
2022/12/07 07:31:03;;;;;;;15.07;7.60;;;4.90;99.90;;;;;;5032537;28;20079;-74
2022/12/07 07:33:33;;;;;;;13.15;6.88;;;5.00;99.90;;;;;;5033120;28;20450;-73
2022/12/07 07:35:59;;;;;;;13.05;7.07;;;4.90;99.90;;;;;;5033649;28;20358;-74
2022/12/07 07:38:27;;;;;;;11.32;7.30;;;4.90;99.90;;;;;;5031511;28;20029;-75
2022/12/07 07:40:52;;;;;;;19.75;6.63;;;5.00;99.90;;;;;;5033506;28;20111;-74
2022/12/07 07:43:21;;;;;;;13.48;5.80;;;4.90;99.90;;;;;;5038415;28;20450;-75
2022/12/07 07:45:49;;;;;;;13.77;6.38;;;4.90;99.90;;;;;;5039432;28;20079;-75
2022/12/07 07:48:17;;;;;;;16.08;5.97;;;5.00;99.90;;;;;;5031120;28;20506;-75
2022/12/07 07:50:45;;;;;;;17.17;6.88;;;4.90;99.90;;;;;;5033465;28;20331;-75
2022/12/07 07:53:10;;;;;;;9.98;5.32;;;4.90;99.90;;;;;;5031686;28;20104;-75
2022/12/07 07:55:36;;;;;;;13.55;5.68;;;4.80;99.90;;;;;;5027532;28;20108;-73
2022/12/07 07:58:04;;;;;;;12.48;5.40;;;4.90;99.90;;;;;;5035030;28;20021;-75
2022/12/07 08:00:30;;;;;;;12.15;5.13;;;4.90;99.90;;;;;;5033603;28;20044;-75
2022/12/07 08:02:55;;;;;;;13.30;5.22;;;4.90;99.90;;;;;;5033222;28;20373;-75
2022/12/07 08:05:23;;;;;;;10.93;5.30;;;4.80;99.90;;;;;;5031272;28;20038;-75
2022/12/07 08:07:49;;;;;;;9.40;4.93;;;4.80;99.90;;;;;;5033767;28;20059;-74
2022/12/07 08:10:15;;;;;;;12.50;5.32;;;4.80;99.90;;;;;;5036046;28;20029;-75
2022/12/07 08:15:30;;;;;;;12.63;5.20;;;4.80;99.90;;;;;;5034319;28;20135;-75
2022/12/07 08:17:56;;;;;;;14.10;4.43;;;4.80;99.90;;;;;;5032522;28;20025;-75
2022/12/07 08:20:22;;;;;;;26.55;5.22;;;4.80;99.90;;;;;;5032370;28;20071;-73
2022/12/07 08:22:49;;;;;;;10.25;4.25;;;4.90;99.90;;;;;;5031649;28;20703;-75
2022/12/07 08:25:18;;;;;;;10.10;4.45;;;4.90;99.90;;;;;;5031342;28;20033;-75
2022/12/07 08:27:46;;;;;;;8.45;4.25;;;5.00;99.90;;;;;;5035400;28;20025;-75
2022/12/07 08:30:12;;;;;;;10.48;5.03;;;5.10;99.90;;;;;;5036393;28;20475;-76
2022/12/07 08:32:37;;;;;;;42.80;12.68;;;5.10;99.90;;;;;;5035318;28;20038;-72
2022/12/07 08:35:03;;;;;;;18.63;6.32;;;5.10;99.90;;;;;;5033877;28;20029;-74
2022/12/07 08:37:29;;;;;;;9.77;4.50;;;5.20;99.90;;;;;;5035053;28;20095;-76
2022/12/07 08:39:59;;;;;;;9.20;4.07;;;5.20;99.90;;;;;;5030652;28;20079;-76
2022/12/07 08:42:29;;;;;;;13.90;4.13;;;5.30;99.90;;;;;;5033745;28;20057;-76
2022/12/07 08:44:57;;;;;;;6.70;3.88;;;5.30;99.90;;;;;;5033043;28;20052;-75
2022/12/07 08:47:25;;;;;;;50.60;15.60;;;5.40;99.90;;;;;;5031564;28;20021;-72
2022/12/07 08:49:54;;;;;;;10.00;4.32;;;5.60;99.90;;;;;;5036686;28;20022;-75
2022/12/07 08:52:23;;;;;;;5.72;3.55;;;5.70;99.90;;;;;;5032868;28;20032;-74
2022/12/07 08:54:49;;;;;;;11.63;4.38;;;5.70;99.90;;;;;;5036667;28;20029;-75
2022/12/07 08:57:14;;;;;;;10.75;3.75;;;5.90;99.90;;;;;;5033504;28;20044;-74
2022/12/07 08:59:40;;;;;;;10.07;3.20;;;5.90;99.90;;;;;;5030160;28;20041;-75
2022/12/07 09:02:09;;;;;;;6.25;2.80;;;5.90;99.90;;;;;;5034243;28;20053;-75
2022/12/07 09:04:34;;;;;;;9.80;3.72;;;5.90;99.90;;;;;;5030183;28;20459;-75
2022/12/07 09:07:03;;;;;;;11.63;2.70;;;5.90;99.90;;;;;;5033479;28;20037;-75
2022/12/07 09:09:32;;;;;;;7.88;3.13;;;5.80;99.90;;;;;;5027849;28;20135;-72
2022/12/07 09:11:58;;;;;;;8.63;3.38;;;5.80;99.90;;;;;;5033741;28;20096;-74
2022/12/07 09:14:26;;;;;;;6.25;3.17;;;5.80;99.90;;;;;;5036639;28;20108;-75
2022/12/07 09:16:52;;;;;;;7.20;3.00;;;5.80;99.90;;;;;;5032468;28;20025;-75
2022/12/07 09:19:17;;;;;;;14.90;3.35;;;5.70;99.90;;;;;;5032126;28;20075;-75
2022/12/07 09:21:43;;;;;;;8.38;3.13;;;5.80;99.90;;;;;;5030293;28;20040;-75
2022/12/07 09:24:11;;;;;;;9.45;3.50;;;5.90;99.90;;;;;;5034959;28;20029;-75
2022/12/07 09:26:39;;;;;;;12.55;3.63;;;5.90;99.90;;;;;;5033555;28;20030;-71
2022/12/07 09:29:04;;;;;;;14.52;5.47;;;6.10;99.90;;;;;;5030852;28;20450;-76
2022/12/07 09:31:30;;;;;;;7.63;3.28;;;6.20;99.90;;;;;;5032755;28;20119;-75
2022/12/07 09:33:59;;;;;;;7.80;2.83;;;6.20;99.90;;;;;;5041490;28;20064;-75
2022/12/07 09:36:26;;;;;;;6.70;3.10;;;6.40;99.90;;;;;;5033200;28;20029;-76
2022/12/07 09:38:52;;;;;;;9.77;2.58;;;6.40;99.90;;;;;;5036341;28;20045;-75
2022/12/07 09:41:18;;;;;;;7.22;2.55;;;6.50;99.90;;;;;;5032914;28;20438;-75
2022/12/07 09:43:45;;;;;;;8.38;3.03;;;6.70;99.90;;;;;;5031896;28;20022;-74
2022/12/07 09:46:18;;;;;;;10.20;3.08;;;6.90;99.90;;;;;;5031371;28;20021;-74
2022/12/07 09:48:44;;;;;;;7.35;2.88;;;7.00;99.90;;;;;;5034944;28;20037;-73
2022/12/07 09:51:19;;;;;;;9.48;2.80;;;7.10;99.90;;;;;;5031162;28;20025;-73
2022/12/07 09:53:46;;;;;;;12.00;3.53;;;7.20;99.90;;;;;;5030552;28;20038;-74
2022/12/07 09:56:16;;;;;;;14.75;3.30;;;7.20;99.90;;;;;;5031326;28;20071;-76
2022/12/07 09:58:46;;;;;;;8.52;2.72;;;7.30;99.90;;;;;;5034696;28;20052;-75
2022/12/07 10:01:15;;;;;;;4.10;2.53;;;7.30;99.90;;;;;;5030918;28;20041;-75
2022/12/07 10:03:51;;;;;;;9.68;2.63;;;7.30;99.90;;;;;;5031165;28;20445;-74
2022/12/07 10:06:19;;;;;;;12.48;2.97;;;7.40;99.90;;;;;;5032494;28;20025;-75
2022/12/07 10:08:44;;;;;;;9.10;2.88;;;7.30;99.90;;;;;;5034895;28;20033;-74
2022/12/07 10:11:11;;;;;;;12.00;3.25;;;7.40;99.90;;;;;;5035171;28;20018;-73
2022/12/07 10:13:38;;;;;;;13.52;2.95;;;7.30;99.90;;;;;;5030291;28;20175;-73
2022/12/07 10:16:05;;;;;;;10.70;3.10;;;7.20;99.90;;;;;;5032809;28;20162;-72
2022/12/07 10:18:41;;;;;;;10.95;2.40;;;7.20;99.90;;;;;;5029881;28;20049;-75
2022/12/07 10:21:20;;;;;;;11.52;3.03;;;7.30;99.90;;;;;;5026122;28;20021;-74
2022/12/07 10:24:05;;;;;;;6.78;2.88;;;7.20;99.90;;;;;;5030658;28;20042;-74
2022/12/07 10:26:49;;;;;;;8.20;2.80;;;7.10;99.90;;;;;;5029210;28;20048;-74
2022/12/07 10:29:17;;;;;;;10.10;3.45;;;7.20;99.90;;;;;;5018203;28;20026;-75
2022/12/07 10:31:51;;;;;;;3.78;2.10;;;7.30;99.90;;;;;;5016926;28;20033;-76
2022/12/07 10:34:28;;;;;;;7.38;2.90;;;7.40;99.90;;;;;;5030613;28;20036;-75
2022/12/07 10:37:13;;;;;;;11.77;2.75;;;7.80;99.90;;;;;;5029406;28;20037;-73
2022/12/07 10:39:42;;;;;;;6.72;1.80;;;8.20;99.90;;;;;;5029268;28;20433;-76
2022/12/07 10:42:18;;;;;;;12.18;2.40;;;8.50;99.90;;;;;;5036306;28;20068;-72
2022/12/07 10:44:46;;;;;;;8.27;2.33;;;9.00;99.90;;;;;;5030068;28;20018;-72
2022/12/07 10:47:33;;;;;;;13.80;3.20;;;9.10;99.90;;;;;;5031960;28;20341;-73
2022/12/07 10:50:10;;;;;;;7.78;2.65;;;8.90;99.90;;;;;;5034705;28;20053;-76
2022/12/07 10:52:57;;;;;;;8.02;2.00;;;8.60;99.90;;;;;;5032626;28;20021;-78
2022/12/07 10:56:02;;;;;;;11.73;2.67;;;8.40;99.90;;;;;;5031804;28;20041;-77
2022/12/07 10:59:19;;;;;;;7.13;2.10;;;8.30;99.90;;;;;;5023294;28;20468;-75
2022/12/07 11:01:51;;;;;;;6.18;1.73;;;8.40;99.90;;;;;;5023323;28;20063;-75
2022/12/07 11:04:38;;;;;;;13.20;2.30;;;8.60;99.90;;;;;;5034869;28;20155;-75
2022/12/07 11:07:15;;;;;;;6.70;2.10;;;9.20;99.90;;;;;;5034280;28;20021;-77
2022/12/07 11:09:59;;;;;;;4.53;2.60;;;9.50;99.90;;;;;;5037597;28;20025;-76
2022/12/07 11:12:27;;;;;;;6.25;1.98;;;9.20;99.90;;;;;;5036577;28;20036;-75
2022/12/07 11:15:01;;;;;;;7.20;1.85;;;9.20;99.90;;;;;;5034700;28;20342;-76
2022/12/07 11:17:42;;;;;;;6.97;1.88;;;9.40;99.90;;;;;;5034223;28;20060;-73
2022/12/07 11:20:38;;;;;;;6.35;2.45;;;9.30;99.90;;;;;;5031785;28;20458;-71
2022/12/07 11:23:41;;;;;;;8.93;1.92;;;9.20;99.90;;;;;;5034475;28;20035;-75
2022/12/07 11:26:16;;;;;;;7.30;2.35;;;9.00;99.90;;;;;;5036237;28;20588;-78
2022/12/07 11:29:05;;;;;;;4.45;1.85;;;8.90;99.90;;;;;;5034017;28;20124;-77
2022/12/07 11:31:59;;;;;;;4.10;1.98;;;8.60;99.90;;;;;;5033303;28;20038;-76
2022/12/07 11:34:33;;;;;;;9.43;2.42;;;8.60;99.90;;;;;;5050790;28;20135;-76
2022/12/07 11:37:06;;;;;;;13.85;2.05;;;8.70;99.90;;;;;;5034674;28;20036;-77
2022/12/07 11:40:01;;;;;;;8.23;2.20;;;8.60;99.90;;;;;;5037665;28;20115;-76
2022/12/07 11:42:38;;;;;;;9.27;2.25;;;8.70;99.90;;;;;;5036835;28;20099;-75
2022/12/07 11:45:16;;;;;;;7.60;2.40;;;8.70;99.90;;;;;;5036413;28;20037;-74
2022/12/07 11:47:57;;;;;;;6.15;2.38;;;8.70;99.90;;;;;;5032672;28;20029;-76
2022/12/07 11:50:47;;;;;;;6.40;2.40;;;8.60;99.90;;;;;;5033589;28;20040;-74
2022/12/07 11:53:31;;;;;;;8.50;2.83;;;8.60;99.90;;;;;;5032874;28;20037;-71
2022/12/07 11:56:05;;;;;;;8.02;2.03;;;8.60;99.90;;;;;;5031670;28;20037;-75
2022/12/07 11:58:44;;;;;;;10.48;2.40;;;8.80;99.90;;;;;;5033525;28;20033;-74
2022/12/07 12:01:22;;;;;;;8.38;2.58;;;9.20;99.90;;;;;;5033816;28;20036;-76
2022/12/07 12:03:52;;;;;;;9.90;2.10;;;9.30;99.90;;;;;;5036659;28;20031;-76
2022/12/07 12:06:22;;;;;;;3.92;2.22;;;9.10;99.90;;;;;;5031704;28;20163;-78
2022/12/07 12:08:57;;;;;;;3.92;1.73;;;8.80;99.90;;;;;;5034031;28;20060;-78
2022/12/07 12:11:44;;;;;;;9.88;2.30;;;8.60;99.90;;;;;;5029825;28;20033;-75
2022/12/07 12:14:24;;;;;;;4.95;1.80;;;8.50;99.90;;;;;;5033647;28;20053;-75
2022/12/07 12:17:11;;;;;;;6.30;2.10;;;8.40;99.90;;;;;;5039499;28;20033;-76
2022/12/07 12:20:15;;;;;;;8.60;2.30;;;8.30;99.90;;;;;;5030506;28;20045;-73
2022/12/07 12:22:47;;;;;;;7.63;2.65;;;8.20;99.90;;;;;;5031452;28;20021;-77
2022/12/07 12:25:26;;;;;;;11.45;2.28;;;8.20;99.90;;;;;;5034997;28;20029;-77
2022/12/07 12:27:55;;;;;;;8.13;2.08;;;8.30;99.90;;;;;;5034182;28;20140;-77
2022/12/07 12:30:40;;;;;;;7.15;2.40;;;8.30;99.90;;;;;;5031476;28;20055;-74
2022/12/07 12:33:22;;;;;;;8.18;2.35;;;8.50;99.90;;;;;;5031003;28;20091;-76
2022/12/07 12:36:20;;;;;;;7.17;2.83;;;8.60;99.90;;;;;;5048590;28;20025;-77
2022/12/07 12:38:50;;;;;;;3.50;1.85;;;8.70;99.90;;;;;;5028887;28;20088;-76
2022/12/07 12:44:19;;;;;;;5.53;1.75;;;8.90;99.90;;;;;;5033531;28;20031;-75
2022/12/07 12:46:57;;;;;;;4.75;1.90;;;9.30;99.90;;;;;;5037893;28;20539;-72
2022/12/07 12:49:25;;;;;;;6.30;1.75;;;9.70;99.90;;;;;;5035111;28;20104;-75
2022/12/07 12:51:56;;;;;;;8.75;1.58;;;10.10;99.90;;;;;;5035549;28;20036;-77
2022/12/07 12:54:31;;;;;;;7.88;1.60;;;10.30;99.90;;;;;;5035344;28;20045;-77
2022/12/07 12:57:26;;;;;;;5.43;1.92;;;10.20;99.90;;;;;;5029994;28;20104;-76
2022/12/07 12:59:51;;;;;;;6.60;1.90;;;10.40;99.90;;;;;;5035973;28;20461;-77
2022/12/07 13:02:37;;;;;;;5.32;1.70;;;10.40;99.90;;;;;;5032586;28;20067;-73
2022/12/07 13:05:12;;;;;;;12.38;3.25;;;10.30;99.90;;;;;;5033111;28;20021;-74
2022/12/07 13:07:46;;;;;;;7.40;2.65;;;10.30;99.90;;;;;;5032986;28;20116;-77
2022/12/07 13:10:40;;;;;;;4.57;1.48;;;10.40;99.90;;;;;;5029686;28;20021;-76
2022/12/07 13:13:13;;;;;;;4.72;2.20;;;10.30;99.90;;;;;;5029136;28;20046;-76
2022/12/07 13:15:49;;;;;;;12.48;2.90;;;10.30;99.90;;;;;;5036780;28;20120;-75
2022/12/07 13:18:29;;;;;;;6.15;1.98;;;10.10;99.90;;;;;;5033668;28;20036;-77